Latest Weather Observations for Warruwi

IDD60801

Issued at 5:01 pm CST Tuesday 28 February 2017 (issued every 30 minutes, with the page automatically refreshed every 10 minutes)

About weather observations | Map of weather stations | Latest weather observations for NT | Other Formats
Station Details ID: 014401 Name: WARRUWI AIRPORT Lat: -11.65 Lon: 133.38 Height: 19.2 m
Data from the previous 72 hours. | See also: Recent months at Warruwi
Date/Time
CST
Temp
°C
App
Temp
°C
Dew
Point
°C
Rel
Hum
%
Delta-T
°C
Wind Press
QNH
hPa
Press
MSL
hPa
Rain since
9am
mm
Dir  Spd
km/h
Gust
km/h
Spd
kts
Gust
kts
28/04:30pm 30.0 35.5 26.8 83 2.3 ENE 11 17 6 9 1006.7 1006.5 0.0
28/04:00pm 30.2 35.3 27.2 84 2.2 ENE 15 26 8 14 1006.5 1006.3 0.0
28/03:30pm 30.3 35.8 27.3 84 2.2 ENE 13 26 7 14 1006.6 1006.4 0.0
28/03:00pm 30.3 37.1 28.1 88 1.6 ENE 9 17 5 9 1006.8 1006.6 0.0
28/02:30pm 29.9 36.7 28.5 92 1.0 ENE 11 17 6 9 1007.2 1007.0 0.0
28/02:00pm 30.9 36.7 28.3 86 1.9 E 15 24 8 13 1007.5 1007.3 0.0
28/01:30pm 31.1 37.0 28.9 88 1.6 E 17 26 9 14 1007.6 1007.4 0.0
28/01:00pm 30.5 37.0 28.7 90 1.3 E 13 22 7 12 1007.9 1007.7 0.0
28/12:30pm 30.4 36.8 29.0 92 1.0 ESE 15 22 8 12 1008.3 1008.1 0.0
28/12:00pm 29.6 35.1 28.3 93 1.0 ESE 17 24 9 13 1008.7 1008.5 0.0
28/11:30am 28.9 35.0 28.6 98 0.2 E 15 22 8 12 1008.9 1008.7 0.0
28/11:00am 28.5 34.0 28.3 99 0.1 ESE 17 24 9 13 1009.1 1008.9 0.0
28/10:30am 28.5 34.1 28.5 100 0.0 ESE 17 24 9 13 1009.4 1009.2 0.0
28/10:00am 28.2 33.6 28.2 100 0.0 ESE 17 24 9 13 1009.7 1009.5 0.0
28/09:30am 28.0 34.0 28.0 100 0.0 ESE 13 20 7 11 1009.8 1009.6 0.0
28/09:00am 27.8 33.7 27.8 100 0.0 SE 13 17 7 9 1009.8 1009.6 0.0
28/08:30am 27.4 33.4 27.4 100 0.0 SE 11 15 6 8 1009.6 1009.4 0.0
28/08:00am 27.4 32.6 27.4 100 0.0 SE 15 20 8 11 1009.0 1008.8 0.0
28/07:30am 27.3 33.2 27.3 100 0.0 SE 11 17 6 9 1008.9 1008.7 0.0
28/07:00am 26.8 32.7 26.8 100 0.0 SE 9 13 5 7 1008.6 1008.4 0.0
28/06:30am 26.5 32.2 26.5 100 0.0 SSE 9 15 5 8 1008.3 1008.1 0.0
28/06:00am 26.5 32.2 26.5 100 0.0 SSE 9 13 5 7 1008.0 1007.8 0.0
28/05:30am 26.6 32.4 26.6 100 0.0 SSE 9 13 5 7 1008.0 1007.8 0.0
28/05:00am 26.7 32.6 26.7 100 0.0 SSE 9 13 5 7 1007.9 1007.7 0.0
28/04:30am 26.9 33.5 26.9 100 0.0 S 6 7 3 4 1007.7 1007.5 0.0
28/04:00am 27.1 34.2 27.1 100 0.0 SE 4 4 2 2 1007.7 1007.5 0.0
28/03:30am 26.8 34.4 26.8 100 0.0 CALM 0 2 0 1 1007.6 1007.4 0.0
28/03:00am 26.5 33.9 26.5 100 0.0 CALM 0 0 0 0 1007.8 1007.6 0.0
28/02:30am 26.6 34.1 26.6 100 0.0 CALM 0 0 0 0 1007.7 1007.5 0.0
28/02:00am 26.9 34.6 26.9 100 0.0 CALM 0 0 0 0 1008.1 1007.9 0.0
28/01:30am 27.0 34.0 27.0 100 0.0 SSE 4 6 2 3 1008.5 1008.3 0.0
28/01:00am 27.1 34.2 27.1 100 0.0 SE 4 6 2 3 1008.9 1008.7 0.0
28/12:30am 26.9 34.6 26.9 100 0.0 CALM 0 0 0 0 1009.1 1008.9 0.0
28/12:00am 26.9 33.8 26.9 100 0.0 SSW 4 6 2 3 1009.6 1009.4 0.0
 
Date/Time
CST
Temp
°C
App
Temp
°C
Dew
Point
°C
Rel
Hum
%
Delta-T
°C
Wind Press
QNH
hPa
Press
MSL
hPa
Rain since
9am
mm
Dir  Spd
km/h
Gust
km/h
Spd
kts
Gust
kts
27/11:30pm 26.7 33.9 26.7 100 0.0 NE 2 6 1 3 1009.9 1009.7 0.0
27/11:00pm 26.6 33.3 26.6 100 0.0 ESE 4 7 2 4 1010.0 1009.8 0.0
27/10:30pm 26.4 32.1 26.4 100 0.0 S 9 17 5 9 1010.0 1009.8 0.0
27/10:00pm 26.9 33.3 26.9 100 0.0 SSW 7 13 4 7 1009.9 1009.7 0.0
27/09:30pm 26.8 33.3 26.8 100 0.0 S 6 11 3 6 1009.4 1009.2 0.0
27/09:00pm 28.2 33.6 27.7 97 0.4 SE 15 20 8 11 1009.2 1009.0 0.0
27/08:30pm 29.3 35.7 27.5 90 1.3 E 9 15 5 8 1008.7 1008.5 0.0
27/08:00pm 29.1 36.6 27.7 92 1.0 ENE 4 7 2 4 1008.5 1008.3 0.0
27/07:30pm 29.2 35.9 27.4 90 1.3 ENE 7 13 4 7 1008.3 1008.1 0.0
27/07:00pm 29.2 36.1 27.6 91 1.2 ENE 7 17 4 9 1007.9 1007.7 0.0
27/06:30pm 29.5 36.3 27.3 88 1.6 NE 6 9 3 5 1007.1 1006.9 0.0
27/06:00pm 30.0 36.4 27.0 84 2.2 ENE 7 13 4 7 1006.9 1006.7 0.0
27/05:30pm 30.5 37.2 27.9 86 1.9 ENE 9 17 5 9 1006.6 1006.4 0.0
27/05:00pm 31.3 38.0 27.9 82 2.5 ENE 9 17 5 9 1006.3 1006.1 0.0
27/04:30pm 31.5 38.9 28.3 83 2.3 NE 7 13 4 7 1006.0 1005.8 0.0
27/04:00pm 31.0 37.8 28.0 84 2.2 E 9 15 5 8 1006.1 1005.9 0.0
27/03:30pm 31.7 37.3 28.0 81 2.7 ESE 15 20 8 11 1006.6 1006.4 0.0
27/03:00pm 32.1 38.4 28.4 81 2.7 E 13 20 7 11 1006.5 1006.3 0.0
27/02:30pm 31.7 37.6 27.8 80 2.8 E 13 19 7 10 1006.8 1006.6 0.0
27/02:00pm 31.7 38.2 28.2 82 2.6 E 11 17 6 9 1007.2 1007.0 0.0
27/01:30pm 31.7 37.9 28.2 82 2.6 E 13 19 7 10 1007.8 1007.6 0.0
27/01:00pm 31.6 38.0 29.0 86 1.9 E 15 20 8 11 1008.1 1007.9 0.0
27/12:30pm 31.6 38.4 29.0 86 1.9 E 13 19 7 10 1008.7 1008.5 0.0
27/12:00pm 31.4 38.5 29.0 87 1.8 E 11 17 6 9 1009.1 1008.9 0.0
27/11:30am 31.2 38.2 28.8 87 1.8 ENE 11 19 6 10 1009.4 1009.2 0.0
27/11:00am 31.0 38.6 28.6 87 1.8 E 7 17 4 9 1009.7 1009.5 0.0
27/10:30am 30.4 37.7 28.2 88 1.6 ESE 7 11 4 6 1009.9 1009.7 0.0
27/10:00am 30.2 38.1 29.5 96 0.5 ESE 9 15 5 8 1010.0 1009.8 0.0
27/09:30am 29.9 38.5 29.9 100 0.0 E 7 11 4 6 1009.9 1009.7 0.0
27/09:00am 29.3 37.6 29.3 100 0.0 E 6 9 3 5 1010.0 1009.8 0.0
27/08:30am 28.4 35.8 28.4 100 0.0 ESE 7 13 4 7 1009.9 1009.7 0.0
27/08:00am 28.8 36.7 28.8 100 0.0 SE 6 9 3 5 1009.2 1009.0 0.0
27/07:30am 27.9 35.0 27.9 100 0.0 SSE 7 9 4 5 1008.6 1008.4 0.0
27/07:00am 26.9 34.2 26.9 100 0.0 ESE 2 6 1 3 1008.2 1008.0 0.0
27/06:30am 26.9 33.3 26.9 100 0.0 SSE 7 11 4 6 1008.2 1008.0 0.0
27/06:00am 27.1 34.6 27.1 100 0.0 ESE 2 6 1 3 1007.9 1007.7 0.0
27/05:30am 27.2 33.8 27.2 100 0.0 SSE 7 9 4 5 1008.1 1007.9 0.0
27/05:00am 27.3 33.9 27.3 100 0.0 SSE 7 13 4 7 1007.9 1007.7 0.0
27/04:30am 27.1 33.8 27.1 100 0.0 SSE 6 7 3 4 1008.2 1008.0 0.0
27/04:00am 26.5 33.2 26.5 100 0.0 SSE 4 6 2 3 1008.2 1008.0 0.0
27/03:30am 26.3 32.5 26.3 100 0.0 SSE 6 7 3 4 1008.1 1007.9 0.0
27/03:00am 26.4 33.0 26.4 100 0.0 S 4 7 2 4 1008.1 1007.9 0.0
27/02:30am - - - - - S 6 11 3 6 1008.3 1008.1 0.0
27/02:00am - - - - - SSW 6 9 3 5 1008.5 1008.3 0.0
27/01:30am - - - - - SSW 7 9 4 5 1009.1 1008.9 0.0
27/01:00am - - - - - S 6 9 3 5 1009.2 1009.0 0.0
27/12:30am - - - - - S 7 13 4 7 1009.4 1009.2 0.0
27/12:00am - - - - - S 4 6 2 3 1009.7 1009.5 0.0
 
Date/Time
CST
Temp
°C
App
Temp
°C
Dew
Point
°C
Rel
Hum
%
Delta-T
°C
Wind Press
QNH
hPa
Press
MSL
hPa
Rain since
9am
mm
Dir  Spd
km/h
Gust
km/h
Spd
kts
Gust
kts
26/11:30pm - - - - - SSE 6 9 3 5 1009.8 1009.6 0.0
26/11:00pm - - - - - SSW 6 7 3 4 1009.8 1009.6 0.0
26/10:30pm - - - - - S 6 7 3 4 1009.7 1009.5 0.0
26/10:00pm - - - - - SW 6 9 3 5 1009.5 1009.3 0.0
26/09:30pm - - - - - SW 7 13 4 7 1009.1 1008.9 0.0
26/09:00pm - - - - - CALM 0 0 0 0 1009.0 1008.8 0.0
26/08:30pm - - - - - CALM 0 0 0 0 1008.5 1008.3 0.0
26/08:00pm - - - - - CALM 0 2 0 1 1008.2 1008.0 0.0
26/07:30pm - - - - - CALM 0 2 0 1 1007.8 1007.6 0.0
26/07:00pm - - - - - NNE 6 7 3 4 1007.5 1007.3 0.0
26/06:30pm - - - - - N 6 11 3 6 1007.0 1006.8 0.0
26/06:00pm - - - - - N 6 9 3 5 1006.6 1006.4 0.0
26/05:30pm - - - - - NNE 6 11 3 6 1006.4 1006.2 0.0
26/05:00pm - - - - - NNE 6 11 3 6 1005.9 1005.7 0.0
26/04:30pm - - - - - NNE 6 9 3 5 1005.5 1005.3 0.0
26/04:00pm - - - - - ENE 6 13 3 7 1006.0 1005.8 0.0
26/03:30pm - - - - - NE 6 11 3 6 1006.1 1005.9 0.0
26/03:00pm - - - - - N 9 19 5 10 1005.9 1005.7 0.0
26/02:30pm - - - - - N 7 20 4 11 1006.1 1005.9 0.0
26/02:00pm - - - - - N 9 15 5 8 1006.4 1006.2 0.0
26/01:30pm - - - - - NE 6 11 3 6 1006.4 1006.2 0.0
26/01:00pm - - - - - ENE 7 15 4 8 1006.7 1006.5 0.0
26/12:30pm - - - - - E 7 13 4 7 1007.1 1006.9 0.0
26/12:00pm - - - - - S 7 13 4 7 1007.6 1007.4 0.0
26/11:30am - - - - - SW 6 11 3 6 1008.0 1007.8 0.0
26/11:00am - - - - - WSW 6 11 3 6 1008.4 1008.2 0.0
26/10:30am - - - - - SW 7 11 4 6 1008.4 1008.2 0.0
26/10:00am - - - - - S 7 11 4 6 1008.7 1008.5 0.0
26/09:30am - - - - - SSW 7 11 4 6 1008.8 1008.6 0.0
26/09:00am - - - - - SSW 4 9 2 5 1009.1 1008.9 0.0
26/08:30am - - - - - SW 7 11 4 6 1009.1 1008.9 0.0
26/08:00am - - - - - SW 6 9 3 5 1008.9 1008.7 0.0
26/07:30am - - - - - CALM 0 2 0 1 1008.6 1008.4 0.0
26/07:00am - - - - - SW 2 6 1 3 1008.1 1007.9 0.0
26/06:30am - - - - - SW 4 7 2 4 1008.1 1007.9 0.0
26/06:00am - - - - - WSW 6 9 3 5 1007.8 1007.6 0.0
26/05:30am - - - - - SW 6 9 3 5 1007.6 1007.4 0.0
26/05:00am - - - - - CALM 0 4 0 2 1007.7 1007.5 0.0
26/04:30am - - - - - SW 6 7 3 4 1007.6 1007.4 0.0
26/04:00am - - - - - SSW 2 6 1 3 1007.8 1007.6 0.0
26/03:30am - - - - - SSW 4 7 2 4 1008.0 1007.8 0.0
26/03:00am - - - - - SSW 4 6 2 3 1008.3 1008.1 0.0
26/02:30am - - - - - SW 4 6 2 3 1008.6 1008.4 0.0
26/02:00am - - - - - SSW 6 11 3 6 1008.9 1008.7 0.0
26/01:30am - - - - - SSW 4 7 2 4 1009.3 1009.1 0.0
26/01:00am - - - - - SSW 6 7 3 4 1009.5 1009.3 0.0
26/12:30am - - - - - SSW 4 9 2 5 1010.1 1009.9 0.0
26/12:00am - - - - - SSE 4 6 2 3 1010.3 1010.1 0.0
 
Date/Time
CST
Temp
°C
App
Temp
°C
Dew
Point
°C
Rel
Hum
%
Delta-T
°C
Wind Press
QNH
hPa
Press
MSL
hPa
Rain since
9am
mm
Dir  Spd
km/h
Gust
km/h
Spd
kts
Gust
kts
25/11:30pm - - - - - CALM 0 0 0 0 1010.4 1010.2 0.0
25/11:00pm - - - - - CALM 0 0 0 0 1010.2 1010.0 0.0
25/10:30pm - - - - - CALM 0 0 0 0 1010.3 1010.1 0.0
25/10:00pm - - - - - CALM 0 0 0 0 1009.8 1009.6 0.0
25/09:30pm - - - - - CALM 0 0 0 0 1009.2 1009.0 0.0
25/09:00pm - - - - - CALM 0 0 0 0 1009.0 1008.8 0.0
25/08:30pm - - - - - NW 2 6 1 3 1008.4 1008.2 0.0
25/08:00pm - - - - - CALM 0 0 0 0 1008.4 1008.2 0.0
25/07:30pm - - - - - S 7 13 4 7 1009.0 1008.8 0.0
25/07:00pm - - - - - S 6 6 3 3 1008.9 1008.7 0.0
25/06:30pm - - - - - ESE 11 15 6 8 1008.8 1008.6 0.0
25/06:00pm - - - - - E 15 26 8 14 1008.5 1008.3 0.0
25/05:30pm - - - - - NE 6 15 3 8 1008.1 1007.9 0.0

Other Formats:

Comma delimited format used in spreadsheet applications
http://www.bom.gov.au/fwo/IDD60801/IDD60801.94139.axf

JavaScript Object Notation format (JSON) in row-major order
http://www.bom.gov.au/fwo/IDD60801/IDD60801.94139.json